createdAt,value
2019-03-12T00:02:19.227Z,2.67
2019-03-12T00:04:47.607Z,2.80
2019-03-12T00:07:16.077Z,2.73
2019-03-12T00:09:44.592Z,2.77
2019-03-12T00:12:12.964Z,2.40
2019-03-12T00:14:41.334Z,2.50
2019-03-12T00:17:09.839Z,2.97
2019-03-12T00:19:38.196Z,3.20
2019-03-12T00:22:06.572Z,2.33
2019-03-12T00:24:34.999Z,2.47
2019-03-12T00:27:03.652Z,2.40
2019-03-12T00:29:32.018Z,2.43
2019-03-12T00:32:00.401Z,2.50
2019-03-12T00:34:28.771Z,2.10
2019-03-12T00:36:57.156Z,2.37
2019-03-12T00:39:25.765Z,2.70
2019-03-12T00:41:54.136Z,1.97
2019-03-12T00:44:22.503Z,2.60
2019-03-12T00:46:50.882Z,2.47
2019-03-12T00:49:19.271Z,2.27
2019-03-12T00:51:47.652Z,2.40
2019-03-12T00:54:16.021Z,2.40
2019-03-12T00:56:44.398Z,2.80
2019-03-12T00:59:12.776Z,2.40
2019-03-12T01:01:41.159Z,2.60
2019-03-12T01:04:09.556Z,2.53
2019-03-12T01:06:37.902Z,3.00
2019-03-12T01:09:08.306Z,2.42
2019-03-12T01:11:36.692Z,2.70
2019-03-12T01:14:05.129Z,2.33
2019-03-12T01:16:33.505Z,2.30
2019-03-12T01:19:01.880Z,2.80
2019-03-12T01:21:30.251Z,2.60
2019-03-12T01:23:58.636Z,2.63
2019-03-12T01:26:27.025Z,2.90
2019-03-12T01:28:56.115Z,3.40
2019-03-12T01:31:24.493Z,3.07
2019-03-12T01:33:52.871Z,3.03
2019-03-12T01:36:21.263Z,2.87
2019-03-12T01:38:49.645Z,3.50
2019-03-12T01:41:18.022Z,3.73
2019-03-12T01:43:46.422Z,3.33
2019-03-12T01:46:14.774Z,3.17
2019-03-12T01:48:43.161Z,3.60
2019-03-12T01:51:11.535Z,3.00
2019-03-12T01:53:39.920Z,3.50
2019-03-12T01:56:08.291Z,3.47
2019-03-12T01:58:36.676Z,3.15
2019-03-12T02:01:05.306Z,3.27
2019-03-12T02:03:33.685Z,3.03
2019-03-12T02:06:02.130Z,3.50
2019-03-12T02:08:30.524Z,3.53
2019-03-12T02:10:58.990Z,3.53
2019-03-12T02:13:27.371Z,2.87
2019-03-12T02:15:56.510Z,3.63
2019-03-12T02:18:24.881Z,3.20
2019-03-12T02:20:53.256Z,3.70
2019-03-12T02:23:21.631Z,3.43
2019-03-12T02:25:49.993Z,2.83
2019-03-12T02:28:18.367Z,3.20
2019-03-12T02:30:46.755Z,2.60
2019-03-12T02:33:15.141Z,3.07
2019-03-12T02:35:43.513Z,2.80
2019-03-12T02:38:11.978Z,3.13
2019-03-12T02:40:40.372Z,2.40
2019-03-12T02:43:08.738Z,2.93
2019-03-12T02:45:37.099Z,3.73
2019-03-12T02:48:05.492Z,2.97
2019-03-12T02:50:34.040Z,3.43
2019-03-12T02:53:02.408Z,3.10
2019-03-12T02:55:30.822Z,3.23
2019-03-12T02:57:59.195Z,2.80
2019-03-12T03:00:27.567Z,3.90
2019-03-12T03:02:56.763Z,3.07
2019-03-12T03:05:25.221Z,3.03
2019-03-12T03:07:55.357Z,2.90
2019-03-12T03:10:23.967Z,3.23
2019-03-12T03:12:52.339Z,2.67
2019-03-12T03:15:45.377Z,2.50
2019-03-12T03:18:13.777Z,2.90
2019-03-12T03:20:42.305Z,3.27
2019-03-12T03:23:10.670Z,3.10
2019-03-12T03:25:39.048Z,2.50
2019-03-12T03:28:07.412Z,3.00
2019-03-12T03:30:35.862Z,3.13
2019-03-12T03:33:04.309Z,2.45
2019-03-12T03:35:32.684Z,2.67
2019-03-12T03:38:01.049Z,2.37
2019-03-12T03:40:29.442Z,3.27
2019-03-12T03:42:57.818Z,2.40
2019-03-12T03:45:26.176Z,2.50
2019-03-12T03:47:54.548Z,2.60
2019-03-12T03:50:22.953Z,2.67
2019-03-12T03:52:51.299Z,2.70
2019-03-12T03:55:21.217Z,2.53
2019-03-12T03:57:49.653Z,2.60
2019-03-12T04:00:24.900Z,2.37
2019-03-12T04:02:53.328Z,2.87
2019-03-12T04:05:21.971Z,2.23
2019-03-12T04:07:50.378Z,2.60
2019-03-12T04:10:18.755Z,2.90
2019-03-12T04:12:47.095Z,3.30
2019-03-12T04:15:17.106Z,2.40
2019-03-12T04:17:45.549Z,2.57
2019-03-12T04:20:18.721Z,2.30
2019-03-12T04:22:47.131Z,2.33
2019-03-12T04:25:15.652Z,2.47
2019-03-12T04:27:44.053Z,2.37
2019-03-12T04:30:15.002Z,2.63
2019-03-12T04:32:43.443Z,2.33
2019-03-12T04:35:34.491Z,2.40
2019-03-12T04:38:02.853Z,2.40
2019-03-12T04:40:31.238Z,2.53
2019-03-12T04:42:59.608Z,2.40
2019-03-12T04:45:27.981Z,2.10
2019-03-12T04:47:56.344Z,2.20
2019-03-12T04:50:24.722Z,2.93
2019-03-12T04:52:53.162Z,2.23
2019-03-12T04:55:21.536Z,2.30
2019-03-12T04:57:49.907Z,2.77
2019-03-12T05:00:19.433Z,2.10
2019-03-12T05:02:47.793Z,2.17
2019-03-12T05:05:16.275Z,2.70
2019-03-12T05:07:44.781Z,2.05
2019-03-12T05:10:15.729Z,2.30
2019-03-12T05:12:44.114Z,1.93
2019-03-12T05:15:15.392Z,2.50
2019-03-12T05:17:44.582Z,2.30
2019-03-12T05:20:14.489Z,2.33
2019-03-12T05:22:42.947Z,2.27
2019-03-12T05:25:15.902Z,2.57
2019-03-12T05:27:44.304Z,2.00
2019-03-12T05:30:17.346Z,2.30
2019-03-12T05:32:46.158Z,2.83
2019-03-12T05:35:14.706Z,1.83
2019-03-12T05:37:43.309Z,1.60
2019-03-12T05:40:15.753Z,2.27
2019-03-12T05:42:44.700Z,2.10
2019-03-12T05:45:16.895Z,2.17
2019-03-12T05:47:45.271Z,2.30
2019-03-12T05:50:14.977Z,1.70
2019-03-12T05:52:43.416Z,2.10
2019-03-12T05:55:14.273Z,1.85
2019-03-12T05:57:42.736Z,2.40
2019-03-12T06:00:20.398Z,1.80
2019-03-12T06:02:48.812Z,2.10
2019-03-12T06:05:17.179Z,2.07
2019-03-12T06:07:45.556Z,2.10
2019-03-12T06:10:15.058Z,2.10
2019-03-12T06:12:44.225Z,2.02
2019-03-12T06:15:16.426Z,2.15
2019-03-12T06:17:44.957Z,1.70
2019-03-12T06:20:16.945Z,1.45
2019-03-12T06:22:45.325Z,1.45
2019-03-12T06:25:14.440Z,1.80
2019-03-12T06:27:42.990Z,1.90
2019-03-12T06:30:14.336Z,1.77
2019-03-12T06:32:49.874Z,1.60
2019-03-12T06:35:34.870Z,1.83
2019-03-12T06:38:04.895Z,2.07
2019-03-12T06:40:34.902Z,1.83
2019-03-12T06:43:10.788Z,1.87
2019-03-12T06:45:43.587Z,1.67
2019-03-12T06:48:25.624Z,1.90
2019-03-12T06:51:01.381Z,1.97
2019-03-12T06:53:47.817Z,2.03
2019-03-12T06:56:33.156Z,1.83
2019-03-12T06:59:03.179Z,1.70
2019-03-12T07:01:33.197Z,1.70
2019-03-12T07:04:06.193Z,2.00
2019-03-12T07:06:38.652Z,1.70
2019-03-12T07:09:12.569Z,1.82
2019-03-12T07:11:42.586Z,1.90
2019-03-12T07:14:12.607Z,2.52
2019-03-12T07:16:54.662Z,2.20
2019-03-12T07:19:41.153Z,1.60
2019-03-12T07:22:22.664Z,2.10
2019-03-12T07:25:01.643Z,1.50
2019-03-12T07:27:31.657Z,1.97
2019-03-12T07:30:07.576Z,1.70
2019-03-12T07:32:46.393Z,2.00
2019-03-12T07:35:32.652Z,1.50
2019-03-12T07:38:02.672Z,1.57
2019-03-12T07:40:41.690Z,1.60
2019-03-12T07:43:11.712Z,1.90
2019-03-12T07:45:50.636Z,2.10
2019-03-12T07:48:35.962Z,1.60
2019-03-12T07:51:17.827Z,1.83
2019-03-12T07:53:59.353Z,2.20
2019-03-12T07:56:28.032Z,1.80
2019-03-12T07:58:58.088Z,1.90
2019-03-12T08:01:30.851Z,1.67
2019-03-12T08:04:12.895Z,2.00
2019-03-12T08:06:58.928Z,1.80
2019-03-12T08:09:28.979Z,2.20
2019-03-12T08:12:01.702Z,1.90
2019-03-12T08:14:31.911Z,1.70
2019-03-12T08:17:17.191Z,1.70
2019-03-12T08:20:02.471Z,1.40
2019-03-12T08:22:32.505Z,2.00
2019-03-12T08:25:11.455Z,1.73
2019-03-12T08:27:41.513Z,1.73
2019-03-12T08:30:18.546Z,1.37
2019-03-12T08:32:48.576Z,1.97
2019-03-12T08:35:18.632Z,1.40
2019-03-12T08:37:48.662Z,1.47
2019-03-12T08:40:18.693Z,1.47
2019-03-12T08:42:55.119Z,1.70
2019-03-12T08:45:25.142Z,1.30
2019-03-12T08:48:12.783Z,1.80
2019-03-12T08:50:59.327Z,2.03
2019-03-12T08:53:29.370Z,2.07
2019-03-12T08:56:17.473Z,1.37
2019-03-12T08:59:03.479Z,1.67
2019-03-12T09:01:50.382Z,1.80
2019-03-12T09:04:20.410Z,1.63
2019-03-12T09:07:06.822Z,1.53
2019-03-12T09:09:39.793Z,1.60
2019-03-12T09:12:15.793Z,1.70
2019-03-12T09:14:45.817Z,1.90
2019-03-12T09:17:15.877Z,1.60
2019-03-12T09:20:01.649Z,1.97
2019-03-12T09:22:40.426Z,1.77
2019-03-12T09:25:12.131Z,1.27
2019-03-12T09:28:33.374Z,1.60
2019-03-12T09:31:19.814Z,1.43
2019-03-12T09:33:52.746Z,2.00
2019-03-12T09:36:22.802Z,1.70
2019-03-12T09:38:52.868Z,1.80
2019-03-12T09:41:37.918Z,1.60
2019-03-12T09:44:24.240Z,1.80
2019-03-12T09:46:57.462Z,1.67
2019-03-12T09:49:27.877Z,2.33
2019-03-12T09:51:58.001Z,1.80
2019-03-12T09:54:34.244Z,1.70
2019-03-12T09:57:04.321Z,2.13
2019-03-12T09:59:50.461Z,1.80
2019-03-12T10:02:38.297Z,1.53
2019-03-12T10:05:12.264Z,1.70
2019-03-12T10:07:45.049Z,2.03
2019-03-12T10:10:20.866Z,1.75
2019-03-12T10:13:08.985Z,1.20
2019-03-12T10:15:44.955Z,1.90
2019-03-12T10:18:23.497Z,1.50
2019-03-12T10:20:53.540Z,2.03
2019-03-12T10:23:26.365Z,2.20
2019-03-12T10:25:56.401Z,1.67
2019-03-12T10:28:32.107Z,1.73
2019-03-12T10:31:07.543Z,1.57
2019-03-12T10:33:40.211Z,1.67
2019-03-12T10:36:10.437Z,1.63
2019-03-12T10:39:22.466Z,1.70
2019-03-12T10:41:55.333Z,1.70
2019-03-12T10:44:31.089Z,1.60
2019-03-12T10:47:01.144Z,1.57
2019-03-12T10:49:37.308Z,1.57
2019-03-12T10:52:00.718Z,1.80
2019-03-12T10:54:29.124Z,1.80
2019-03-12T10:56:57.529Z,1.90
2019-03-12T10:59:26.025Z,1.70
2019-03-12T11:01:54.396Z,2.10
2019-03-12T11:04:22.786Z,1.90
2019-03-12T11:06:51.165Z,1.70
2019-03-12T11:09:20.112Z,1.30
2019-03-12T11:11:48.859Z,1.37
2019-03-12T11:14:17.248Z,2.00
2019-03-12T11:16:45.649Z,1.60
2019-03-12T11:19:14.109Z,2.13
2019-03-12T11:21:42.596Z,1.87
2019-03-12T11:24:11.003Z,1.52
2019-03-12T11:26:39.388Z,1.55
2019-03-12T11:29:07.859Z,1.50
2019-03-12T11:31:36.267Z,1.52
2019-03-12T11:34:04.686Z,1.30
2019-03-12T11:36:33.118Z,1.63
2019-03-12T11:39:01.588Z,1.53
2019-03-12T11:41:30.030Z,1.23
2019-03-12T11:43:58.447Z,1.70
2019-03-12T11:46:26.862Z,1.60
2019-03-12T11:48:55.350Z,1.63
2019-03-12T11:51:23.752Z,2.03
2019-03-12T11:53:52.158Z,1.90
2019-03-12T11:56:20.636Z,1.63
2019-03-12T11:58:49.029Z,1.73
2019-03-12T12:01:17.448Z,1.80
2019-03-12T12:03:46.027Z,1.97
2019-03-12T12:06:14.501Z,1.80
2019-03-12T12:08:42.988Z,1.40
2019-03-12T12:11:11.390Z,1.67
2019-03-12T12:13:39.920Z,1.60
2019-03-12T12:16:08.486Z,2.00
2019-03-12T12:18:36.861Z,1.57
2019-03-12T12:21:05.266Z,1.73
2019-03-12T12:23:33.665Z,1.83
2019-03-12T12:26:02.064Z,1.37
2019-03-12T12:28:30.450Z,1.40
2019-03-12T12:30:58.925Z,1.80
2019-03-12T12:33:27.519Z,1.70
2019-03-12T12:35:56.019Z,1.50
2019-03-12T12:38:24.465Z,1.63
2019-03-12T12:40:52.970Z,1.93
2019-03-12T12:43:21.412Z,2.50
2019-03-12T12:45:49.833Z,1.93
2019-03-12T12:48:18.218Z,1.70
2019-03-12T12:50:46.811Z,1.77
2019-03-12T12:53:15.182Z,2.00
2019-03-12T12:55:43.672Z,1.47
2019-03-12T12:58:12.037Z,1.90
2019-03-12T13:00:40.577Z,1.80
2019-03-12T13:03:09.078Z,1.77
2019-03-12T13:05:37.455Z,2.17
2019-03-12T13:08:05.818Z,1.80
2019-03-12T13:10:35.167Z,1.60
2019-03-12T13:13:03.604Z,1.67
2019-03-12T13:15:32.010Z,1.80
2019-03-12T13:18:00.375Z,1.93
2019-03-12T13:20:28.823Z,1.87
2019-03-12T13:22:57.256Z,2.20
2019-03-12T13:25:25.643Z,2.10
2019-03-12T13:27:54.008Z,2.10
2019-03-12T13:30:23.528Z,1.80
2019-03-12T13:32:52.122Z,2.17
2019-03-12T13:35:20.788Z,2.00
2019-03-12T13:37:49.603Z,2.12
2019-03-12T13:40:26.623Z,2.13
2019-03-12T13:42:55.236Z,1.77
2019-03-12T13:45:29.143Z,2.23
2019-03-12T13:47:57.643Z,2.10
2019-03-12T13:50:26.261Z,1.80
2019-03-12T13:52:54.810Z,2.30
2019-03-12T13:55:23.344Z,2.20
2019-03-12T13:57:51.846Z,1.97
2019-03-12T14:00:27.927Z,1.77
2019-03-12T14:02:56.376Z,1.70
2019-03-12T14:05:24.821Z,2.17
2019-03-12T14:07:53.257Z,1.77
2019-03-12T14:10:25.406Z,1.67
2019-03-12T14:12:54.625Z,1.80
2019-03-12T14:15:38.106Z,2.10
2019-03-12T14:18:06.927Z,1.93
2019-03-12T14:20:49.780Z,1.80
2019-03-12T14:23:24.287Z,1.83
2019-03-12T14:25:52.871Z,1.90
2019-03-12T14:28:21.314Z,1.63
2019-03-12T14:30:49.768Z,2.30
2019-03-12T14:33:18.369Z,1.80
2019-03-12T14:35:51.931Z,1.67
2019-03-12T14:38:17.816Z,2.00
2019-03-12T14:40:46.424Z,1.80
2019-03-12T14:43:14.805Z,1.83
2019-03-12T14:45:47.797Z,1.87
2019-03-12T14:48:40.003Z,2.07
2019-03-12T14:51:28.234Z,1.67
2019-03-12T14:54:02.225Z,2.13
2019-03-12T14:56:31.733Z,2.00
2019-03-12T14:59:00.259Z,12.87
2019-03-12T15:01:28.768Z,63.83
2019-03-12T15:03:57.242Z,42.33
2019-03-12T15:06:26.927Z,10.50
2019-03-12T15:08:55.348Z,66.73
2019-03-12T15:11:23.759Z,67.67
2019-03-12T15:13:52.177Z,46.57
2019-03-12T15:16:20.587Z,46.93
2019-03-12T15:18:51.864Z,40.17
2019-03-12T15:21:19.267Z,43.40
2019-03-12T15:23:47.773Z,37.63
2019-03-12T15:26:16.151Z,37.67
2019-03-12T15:28:44.550Z,34.07
2019-03-12T15:31:12.943Z,31.07
2019-03-12T15:33:41.327Z,43.43
2019-03-12T15:36:09.865Z,52.00
2019-03-12T15:38:38.386Z,82.50
2019-03-12T15:41:06.910Z,143.47
2019-03-12T15:43:35.372Z,155.87
2019-03-12T15:46:03.763Z,205.47
2019-03-12T15:48:32.154Z,199.13
2019-03-12T15:51:00.801Z,187.40
2019-03-12T15:53:29.317Z,176.57
2019-03-12T15:55:58.919Z,167.63
2019-03-12T15:58:27.362Z,168.00
2019-03-12T16:00:55.759Z,161.93
2019-03-12T16:03:24.218Z,157.87
2019-03-12T16:05:52.795Z,152.97
2019-03-12T16:08:21.192Z,150.97
2019-03-12T16:10:58.088Z,146.17
2019-03-12T16:13:20.547Z,145.40
2019-03-12T16:15:48.947Z,141.15
2019-03-12T16:18:17.330Z,132.70
2019-03-12T16:20:45.729Z,123.10
2019-03-12T16:23:14.112Z,121.27
2019-03-12T16:25:42.507Z,110.57
2019-03-12T16:28:10.882Z,111.37
2019-03-12T16:30:39.267Z,103.73
2019-03-12T16:33:07.809Z,100.87
2019-03-12T16:35:36.339Z,101.77
2019-03-12T16:38:07.012Z,99.00
2019-03-12T16:40:34.978Z,95.60
2019-03-12T16:43:03.901Z,94.50
2019-03-12T16:45:32.309Z,84.33
2019-03-12T16:48:00.764Z,82.20
2019-03-12T16:50:29.313Z,80.30
2019-03-12T16:52:57.700Z,74.27
2019-03-12T16:55:26.086Z,72.60
2019-03-12T16:57:54.531Z,70.57
2019-03-12T17:00:23.263Z,67.03
2019-03-12T17:02:51.642Z,64.90
2019-03-12T17:05:20.638Z,63.27
2019-03-12T17:07:49.092Z,60.58
2019-03-12T17:10:19.135Z,61.87
2019-03-12T17:12:47.506Z,57.00
2019-03-12T17:15:18.956Z,54.70
2019-03-12T17:17:47.412Z,56.65
2019-03-12T17:20:16.540Z,54.90
2019-03-12T17:22:44.986Z,53.13
2019-03-12T17:25:13.976Z,49.97
2019-03-12T17:27:42.543Z,50.80
2019-03-12T17:30:22.188Z,47.57
2019-03-12T17:32:50.568Z,46.03
2019-03-12T17:35:31.052Z,43.70
2019-03-12T17:37:59.435Z,42.60
2019-03-12T17:40:27.811Z,43.90
2019-03-12T17:42:56.184Z,40.07
2019-03-12T17:45:24.575Z,43.03
2019-03-12T17:47:52.962Z,41.43
2019-03-12T17:50:21.551Z,41.13
2019-03-12T17:52:50.013Z,42.50
2019-03-12T17:55:18.385Z,39.70
2019-03-12T17:57:46.767Z,38.37
2019-03-12T18:00:28.191Z,37.57
2019-03-12T18:02:56.515Z,34.57
2019-03-12T18:05:24.888Z,35.17
2019-03-12T18:07:53.342Z,33.30
2019-03-12T18:10:21.714Z,33.60
2019-03-12T18:12:50.162Z,33.53
2019-03-12T18:15:20.033Z,32.50
2019-03-12T18:17:48.898Z,31.23
2019-03-12T18:20:24.423Z,31.33
2019-03-12T18:22:52.887Z,30.20
2019-03-12T18:25:44.431Z,30.37
2019-03-12T18:28:12.816Z,28.87
2019-03-12T18:30:41.332Z,26.97
2019-03-12T18:33:09.717Z,27.90
2019-03-12T18:35:38.159Z,28.27
2019-03-12T18:38:06.554Z,25.80
2019-03-12T18:40:35.022Z,27.10
2019-03-12T18:43:03.589Z,24.47
2019-03-12T18:45:34.047Z,27.40
2019-03-12T18:48:02.433Z,25.10
2019-03-12T18:50:30.953Z,26.27
2019-03-12T18:52:59.581Z,23.73
2019-03-12T18:55:38.408Z,26.57
2019-03-12T18:58:07.542Z,24.97
2019-03-12T19:00:37.266Z,23.27
2019-03-12T19:03:05.820Z,22.20
2019-03-12T19:05:35.172Z,23.30
2019-03-12T19:08:03.637Z,24.93
2019-03-12T19:10:32.019Z,22.23
2019-03-12T19:13:00.540Z,20.90
2019-03-12T19:15:28.989Z,22.67
2019-03-12T19:17:57.720Z,20.90
2019-03-12T19:20:26.171Z,21.10
2019-03-12T19:22:54.624Z,20.80
2019-03-12T19:25:40.961Z,19.63
2019-03-12T19:28:09.351Z,19.57
2019-03-12T19:30:37.920Z,20.50
2019-03-12T19:33:18.132Z,19.87
2019-03-12T19:35:46.536Z,19.80
2019-03-12T19:38:15.107Z,20.30
2019-03-12T19:40:45.583Z,18.30
2019-03-12T19:43:14.045Z,19.50
2019-03-12T19:45:42.434Z,21.10
2019-03-12T19:48:10.814Z,20.40
2019-03-12T19:50:39.207Z,19.00
2019-03-12T19:53:07.673Z,19.30
2019-03-12T19:55:41.632Z,19.00
2019-03-12T19:58:10.116Z,17.97
2019-03-12T20:00:39.511Z,17.40
2019-03-12T20:03:12.038Z,18.07
2019-03-12T20:05:38.115Z,17.10
2019-03-12T20:08:06.771Z,17.30
2019-03-12T20:10:53.682Z,17.40
2019-03-12T20:13:47.604Z,17.60
2019-03-12T20:16:19.051Z,17.50
2019-03-12T20:19:05.705Z,17.13
2019-03-12T20:21:52.391Z,16.97
2019-03-12T20:24:57.497Z,17.40
2019-03-12T20:28:03.442Z,16.27
2019-03-12T20:31:08.598Z,16.48
2019-03-12T20:34:02.821Z,17.53
2019-03-12T20:37:08.088Z,15.50
2019-03-12T20:40:13.066Z,17.30
2019-03-12T20:43:02.686Z,15.53
2019-03-12T20:45:55.430Z,15.10
2019-03-12T20:49:10.781Z,15.97
2019-03-12T20:52:07.954Z,16.20
2019-03-12T20:55:07.094Z,15.87
2019-03-12T20:57:55.341Z,13.53
2019-03-12T21:00:52.517Z,14.87
2019-03-12T21:04:00.836Z,15.40
2019-03-12T21:06:53.029Z,14.17
2019-03-12T21:09:58.141Z,12.70
2019-03-12T21:12:38.701Z,14.07
2019-03-12T21:15:21.857Z,12.60
2019-03-12T21:18:09.831Z,13.73
2019-03-12T21:20:57.548Z,13.53
2019-03-12T21:23:31.767Z,13.93
2019-03-12T21:26:20.697Z,13.93
2019-03-12T21:29:04.398Z,12.70
2019-03-12T21:31:32.786Z,12.90
2019-03-12T21:34:01.165Z,14.30
2019-03-12T21:36:31.118Z,12.93
2019-03-12T21:38:59.740Z,13.00
2019-03-12T21:41:28.257Z,12.67
2019-03-12T21:43:56.627Z,12.30
2019-03-12T21:46:25.144Z,13.13
2019-03-12T21:48:53.517Z,12.20
2019-03-12T21:51:21.908Z,13.57
2019-03-12T21:53:50.289Z,11.90
2019-03-12T21:56:18.674Z,11.57
2019-03-12T21:58:47.057Z,12.18
2019-03-12T22:01:15.441Z,11.78
2019-03-12T22:03:43.832Z,11.70
2019-03-12T22:06:12.206Z,11.03
2019-03-12T22:08:40.594Z,11.40
2019-03-12T22:11:08.978Z,11.77
2019-03-12T22:13:37.369Z,11.50
2019-03-12T22:16:05.814Z,10.67
2019-03-12T22:18:34.207Z,10.33
2019-03-12T22:21:02.598Z,10.67
2019-03-12T22:23:35.301Z,9.63
2019-03-12T22:26:03.673Z,10.10
2019-03-12T22:28:32.063Z,10.60
2019-03-12T22:31:00.435Z,10.05
2019-03-12T22:33:28.809Z,9.17
2019-03-12T22:35:57.185Z,9.50
2019-03-12T22:38:25.564Z,9.80
2019-03-12T22:40:53.940Z,9.13
2019-03-12T22:43:22.314Z,9.73
2019-03-12T22:45:50.683Z,9.13
2019-03-12T22:48:19.062Z,8.37
2019-03-12T22:50:47.431Z,9.13
2019-03-12T22:53:15.816Z,9.28
2019-03-12T22:55:44.194Z,9.30
2019-03-12T22:58:12.578Z,8.27
2019-03-12T23:00:41.586Z,8.60
2019-03-12T23:03:09.973Z,8.40
2019-03-12T23:05:38.350Z,8.53
2019-03-12T23:08:07.677Z,9.80
2019-03-12T23:10:36.191Z,8.13
2019-03-12T23:13:04.562Z,8.10
2019-03-12T23:15:33.293Z,8.00
2019-03-12T23:18:01.664Z,8.60
2019-03-12T23:20:30.037Z,7.73
2019-03-12T23:22:58.407Z,7.27
2019-03-12T23:25:26.794Z,8.20
2019-03-12T23:27:55.163Z,8.30
2019-03-12T23:30:24.662Z,8.53
2019-03-12T23:32:53.666Z,8.30
2019-03-12T23:35:22.061Z,6.53
2019-03-12T23:37:50.434Z,7.53
2019-03-12T23:40:19.350Z,6.97
2019-03-12T23:42:47.725Z,7.63
2019-03-12T23:45:16.876Z,7.07
2019-03-12T23:47:45.864Z,7.20
2019-03-12T23:50:16.918Z,6.70
2019-03-12T23:52:45.729Z,7.20
2019-03-12T23:55:15.848Z,6.50
2019-03-12T23:57:44.449Z,6.80
